Terminal Aerodrome Forecast
Issued by NWS Topeka, KS

Home | Current Version | Previous Version | Text Only | Print | Product List | Glossary On
Versions: 1 2 3 4 5 6 7 8 9 10 11 12 13 14 15
625
FTUS43 KTOP 302036 AAA
TAFTOP
TAF AMD
KTOP 302036Z 3021/3118 08006KT P6SM FEW060
     FM310700 13005KT P6SM VCTS SCT035 BKN080CB
     FM311500 15009KT P6SM SCT040 BKN100=

USA.gov is the U.S. government's official web portal to all federal, state and local government web resources and services.